sensor_id;sensor_type;location;lat;lon;timestamp;P1;durP1;ratioP1;P2;durP2;ratioP2
1026;SDS011;502;48.746;9.214;2024-03-25T00:00:12;3.53;;;2.40;;
1026;SDS011;502;48.746;9.214;2024-03-25T00:02:39;5.03;;;2.47;;
1026;SDS011;502;48.746;9.214;2024-03-25T00:05:07;4.47;;;2.20;;
1026;SDS011;502;48.746;9.214;2024-03-25T00:07:34;4.33;;;2.33;;
1026;SDS011;502;48.746;9.214;2024-03-25T00:10:01;3.83;;;2.40;;
1026;SDS011;502;48.746;9.214;2024-03-25T00:12:28;2.60;;;2.20;;
1026;SDS011;502;48.746;9.214;2024-03-25T00:14:55;2.57;;;2.10;;
1026;SDS011;502;48.746;9.214;2024-03-25T00:17:20;2.60;;;1.90;;
1026;SDS011;502;48.746;9.214;2024-03-25T00:19:47;7.67;;;2.50;;
1026;SDS011;502;48.746;9.214;2024-03-25T00:22:16;2.83;;;2.40;;
1026;SDS011;502;48.746;9.214;2024-03-25T00:24:43;2.90;;;2.17;;
1026;SDS011;502;48.746;9.214;2024-03-25T00:27:08;3.30;;;2.40;;
1026;SDS011;502;48.746;9.214;2024-03-25T00:29:36;2.53;;;1.97;;
1026;SDS011;502;48.746;9.214;2024-03-25T00:32:02;5.33;;;2.40;;
1026;SDS011;502;48.746;9.214;2024-03-25T00:34:29;3.67;;;2.47;;
1026;SDS011;502;48.746;9.214;2024-03-25T00:36:54;3.00;;;2.13;;
1026;SDS011;502;48.746;9.214;2024-03-25T00:39:21;4.13;;;2.40;;
1026;SDS011;502;48.746;9.214;2024-03-25T00:41:47;3.60;;;2.43;;
1026;SDS011;502;48.746;9.214;2024-03-25T00:44:13;3.73;;;2.73;;
1026;SDS011;502;48.746;9.214;2024-03-25T00:46:40;2.80;;;2.00;;
1026;SDS011;502;48.746;9.214;2024-03-25T00:49:07;5.97;;;2.60;;
1026;SDS011;502;48.746;9.214;2024-03-25T00:51:33;4.30;;;2.60;;
1026;SDS011;502;48.746;9.214;2024-03-25T00:54:00;4.33;;;3.07;;
1026;SDS011;502;48.746;9.214;2024-03-25T00:56:26;3.73;;;2.67;;
1026;SDS011;502;48.746;9.214;2024-03-25T00:58:52;3.33;;;2.47;;
1026;SDS011;502;48.746;9.214;2024-03-25T01:01:18;4.10;;;2.40;;
1026;SDS011;502;48.746;9.214;2024-03-25T01:03:46;4.37;;;2.50;;
1026;SDS011;502;48.746;9.214;2024-03-25T01:06:13;4.27;;;2.80;;
1026;SDS011;502;48.746;9.214;2024-03-25T01:08:39;3.47;;;2.60;;
1026;SDS011;502;48.746;9.214;2024-03-25T01:11:05;3.90;;;2.30;;
1026;SDS011;502;48.746;9.214;2024-03-25T01:13:32;5.40;;;2.77;;
1026;SDS011;502;48.746;9.214;2024-03-25T01:15:57;5.00;;;3.10;;
1026;SDS011;502;48.746;9.214;2024-03-25T01:18:24;4.00;;;3.10;;
1026;SDS011;502;48.746;9.214;2024-03-25T01:20:51;4.03;;;2.80;;
1026;SDS011;502;48.746;9.214;2024-03-25T01:23:17;2.70;;;2.40;;
1026;SDS011;502;48.746;9.214;2024-03-25T01:25:43;4.03;;;2.87;;
1026;SDS011;502;48.746;9.214;2024-03-25T01:28:10;4.03;;;2.77;;
1026;SDS011;502;48.746;9.214;2024-03-25T01:30:35;3.70;;;2.40;;
1026;SDS011;502;48.746;9.214;2024-03-25T01:33:04;3.53;;;2.53;;
1026;SDS011;502;48.746;9.214;2024-03-25T01:35:30;4.13;;;2.60;;
1026;SDS011;502;48.746;9.214;2024-03-25T01:37:58;4.53;;;3.40;;
1026;SDS011;502;48.746;9.214;2024-03-25T01:40:23;4.70;;;3.37;;
1026;SDS011;502;48.746;9.214;2024-03-25T01:42:56;4.10;;;2.70;;
1026;SDS011;502;48.746;9.214;2024-03-25T01:45:22;4.57;;;3.43;;
1026;SDS011;502;48.746;9.214;2024-03-25T01:47:48;4.10;;;2.67;;
1026;SDS011;502;48.746;9.214;2024-03-25T01:50:15;5.00;;;3.13;;
1026;SDS011;502;48.746;9.214;2024-03-25T01:52:42;4.53;;;2.70;;
1026;SDS011;502;48.746;9.214;2024-03-25T01:55:10;6.20;;;3.10;;
1026;SDS011;502;48.746;9.214;2024-03-25T01:57:41;4.80;;;2.50;;
1026;SDS011;502;48.746;9.214;2024-03-25T02:00:07;3.87;;;2.60;;
1026;SDS011;502;48.746;9.214;2024-03-25T02:02:44;3.93;;;2.97;;
1026;SDS011;502;48.746;9.214;2024-03-25T02:05:12;5.53;;;2.50;;
1026;SDS011;502;48.746;9.214;2024-03-25T02:07:39;4.47;;;3.03;;
1026;SDS011;502;48.746;9.214;2024-03-25T02:10:07;4.47;;;2.80;;
1026;SDS011;502;48.746;9.214;2024-03-25T02:12:36;4.40;;;2.70;;
1026;SDS011;502;48.746;9.214;2024-03-25T02:15:02;4.70;;;2.97;;
1026;SDS011;502;48.746;9.214;2024-03-25T02:17:29;4.80;;;3.33;;
1026;SDS011;502;48.746;9.214;2024-03-25T02:19:55;5.60;;;2.70;;
1026;SDS011;502;48.746;9.214;2024-03-25T02:22:21;3.40;;;2.67;;
1026;SDS011;502;48.746;9.214;2024-03-25T02:24:47;3.97;;;3.13;;
1026;SDS011;502;48.746;9.214;2024-03-25T02:27:17;5.17;;;3.10;;
1026;SDS011;502;48.746;9.214;2024-03-25T02:29:43;5.87;;;2.97;;
1026;SDS011;502;48.746;9.214;2024-03-25T02:32:10;5.80;;;2.57;;
1026;SDS011;502;48.746;9.214;2024-03-25T02:34:36;4.40;;;2.90;;
1026;SDS011;502;48.746;9.214;2024-03-25T02:37:02;4.90;;;3.03;;
1026;SDS011;502;48.746;9.214;2024-03-25T02:39:29;3.10;;;2.40;;
1026;SDS011;502;48.746;9.214;2024-03-25T02:41:55;5.87;;;2.90;;
1026;SDS011;502;48.746;9.214;2024-03-25T02:44:22;4.73;;;2.73;;
1026;SDS011;502;48.746;9.214;2024-03-25T02:46:49;3.80;;;3.17;;
1026;SDS011;502;48.746;9.214;2024-03-25T02:49:15;6.63;;;3.40;;
1026;SDS011;502;48.746;9.214;2024-03-25T02:51:41;5.97;;;3.43;;
1026;SDS011;502;48.746;9.214;2024-03-25T02:54:07;4.77;;;2.67;;
1026;SDS011;502;48.746;9.214;2024-03-25T02:56:34;3.80;;;2.30;;
1026;SDS011;502;48.746;9.214;2024-03-25T02:58:59;5.30;;;3.60;;
1026;SDS011;502;48.746;9.214;2024-03-25T03:01:27;4.27;;;3.43;;
1026;SDS011;502;48.746;9.214;2024-03-25T03:03:53;6.00;;;4.13;;
1026;SDS011;502;48.746;9.214;2024-03-25T03:06:19;5.03;;;2.87;;
1026;SDS011;502;48.746;9.214;2024-03-25T03:08:45;5.30;;;3.23;;
1026;SDS011;502;48.746;9.214;2024-03-25T03:11:11;3.50;;;2.80;;
1026;SDS011;502;48.746;9.214;2024-03-25T03:13:37;3.90;;;3.20;;
1026;SDS011;502;48.746;9.214;2024-03-25T03:16:04;4.87;;;3.00;;
1026;SDS011;502;48.746;9.214;2024-03-25T03:18:31;4.50;;;3.47;;
1026;SDS011;502;48.746;9.214;2024-03-25T03:20:57;3.67;;;2.93;;
1026;SDS011;502;48.746;9.214;2024-03-25T03:23:23;3.77;;;3.30;;
1026;SDS011;502;48.746;9.214;2024-03-25T03:25:49;3.77;;;2.80;;
1026;SDS011;502;48.746;9.214;2024-03-25T03:28:15;3.80;;;3.17;;
1026;SDS011;502;48.746;9.214;2024-03-25T03:30:42;5.50;;;3.30;;
1026;SDS011;502;48.746;9.214;2024-03-25T03:33:07;5.40;;;3.30;;
1026;SDS011;502;48.746;9.214;2024-03-25T03:35:35;4.43;;;3.33;;
1026;SDS011;502;48.746;9.214;2024-03-25T03:38:01;4.27;;;3.10;;
1026;SDS011;502;48.746;9.214;2024-03-25T03:40:28;3.70;;;3.10;;
1026;SDS011;502;48.746;9.214;2024-03-25T03:42:54;4.63;;;3.37;;
1026;SDS011;502;48.746;9.214;2024-03-25T03:45:21;4.70;;;3.67;;
1026;SDS011;502;48.746;9.214;2024-03-25T03:47:48;3.70;;;3.10;;
1026;SDS011;502;48.746;9.214;2024-03-25T03:50:15;4.90;;;3.17;;
1026;SDS011;502;48.746;9.214;2024-03-25T03:52:42;4.33;;;3.30;;
1026;SDS011;502;48.746;9.214;2024-03-25T03:55:09;6.33;;;3.10;;
1026;SDS011;502;48.746;9.214;2024-03-25T03:57:35;4.20;;;3.60;;
1026;SDS011;502;48.746;9.214;2024-03-25T04:00:02;6.40;;;3.30;;
1026;SDS011;502;48.746;9.214;2024-03-25T04:02:37;5.60;;;3.90;;
1026;SDS011;502;48.746;9.214;2024-03-25T04:05:04;6.43;;;3.80;;
1026;SDS011;502;48.746;9.214;2024-03-25T04:07:31;4.60;;;3.60;;
1026;SDS011;502;48.746;9.214;2024-03-25T04:09:59;5.20;;;3.40;;
1026;SDS011;502;48.746;9.214;2024-03-25T04:12:25;4.37;;;3.47;;
1026;SDS011;502;48.746;9.214;2024-03-25T04:14:51;6.13;;;4.70;;
1026;SDS011;502;48.746;9.214;2024-03-25T04:17:20;5.73;;;4.00;;
1026;SDS011;502;48.746;9.214;2024-03-25T04:19:47;5.20;;;3.90;;
1026;SDS011;502;48.746;9.214;2024-03-25T04:22:13;5.37;;;3.87;;
1026;SDS011;502;48.746;9.214;2024-03-25T04:24:39;4.90;;;3.70;;
1026;SDS011;502;48.746;9.214;2024-03-25T04:27:06;4.60;;;3.50;;
1026;SDS011;502;48.746;9.214;2024-03-25T04:29:33;6.10;;;3.90;;
1026;SDS011;502;48.746;9.214;2024-03-25T04:31:59;4.73;;;3.33;;
1026;SDS011;502;48.746;9.214;2024-03-25T04:34:25;5.43;;;4.23;;
1026;SDS011;502;48.746;9.214;2024-03-25T04:36:51;6.57;;;4.10;;
1026;SDS011;502;48.746;9.214;2024-03-25T04:39:18;7.13;;;3.90;;
1026;SDS011;502;48.746;9.214;2024-03-25T04:41:44;6.33;;;3.97;;
1026;SDS011;502;48.746;9.214;2024-03-25T04:44:11;4.80;;;3.60;;
1026;SDS011;502;48.746;9.214;2024-03-25T04:46:37;4.23;;;3.37;;
1026;SDS011;502;48.746;9.214;2024-03-25T04:49:03;6.87;;;3.97;;
1026;SDS011;502;48.746;9.214;2024-03-25T04:51:28;6.37;;;3.53;;
1026;SDS011;502;48.746;9.214;2024-03-25T04:53:54;5.30;;;3.70;;
1026;SDS011;502;48.746;9.214;2024-03-25T04:56:20;4.70;;;3.60;;
1026;SDS011;502;48.746;9.214;2024-03-25T04:58:45;5.10;;;3.90;;
1026;SDS011;502;48.746;9.214;2024-03-25T05:01:12;7.67;;;4.00;;
1026;SDS011;502;48.746;9.214;2024-03-25T05:03:38;5.70;;;3.93;;
1026;SDS011;502;48.746;9.214;2024-03-25T05:06:04;5.83;;;3.50;;
1026;SDS011;502;48.746;9.214;2024-03-25T05:08:30;4.10;;;3.20;;
1026;SDS011;502;48.746;9.214;2024-03-25T05:10:55;4.43;;;3.70;;
1026;SDS011;502;48.746;9.214;2024-03-25T05:13:21;4.20;;;3.53;;
1026;SDS011;502;48.746;9.214;2024-03-25T05:15:50;6.50;;;3.50;;
1026;SDS011;502;48.746;9.214;2024-03-25T05:18:17;4.00;;;3.30;;
1026;SDS011;502;48.746;9.214;2024-03-25T05:20:43;5.07;;;3.73;;
1026;SDS011;502;48.746;9.214;2024-03-25T05:23:09;5.73;;;3.50;;
1026;SDS011;502;48.746;9.214;2024-03-25T05:25:35;4.80;;;3.40;;
1026;SDS011;502;48.746;9.214;2024-03-25T05:28:00;3.60;;;2.70;;
1026;SDS011;502;48.746;9.214;2024-03-25T05:30:26;5.17;;;3.60;;
1026;SDS011;502;48.746;9.214;2024-03-25T05:32:52;5.60;;;3.27;;
1026;SDS011;502;48.746;9.214;2024-03-25T05:35:19;5.97;;;3.67;;
1026;SDS011;502;48.746;9.214;2024-03-25T05:37:44;3.60;;;3.13;;
1026;SDS011;502;48.746;9.214;2024-03-25T05:40:10;4.83;;;4.10;;
1026;SDS011;502;48.746;9.214;2024-03-25T05:42:36;4.53;;;3.50;;
1026;SDS011;502;48.746;9.214;2024-03-25T05:45:02;4.87;;;4.23;;
1026;SDS011;502;48.746;9.214;2024-03-25T05:47:28;5.80;;;3.57;;
1026;SDS011;502;48.746;9.214;2024-03-25T05:49:54;5.00;;;3.37;;
1026;SDS011;502;48.746;9.214;2024-03-25T05:52:21;4.90;;;3.47;;
1026;SDS011;502;48.746;9.214;2024-03-25T05:54:46;7.20;;;3.60;;
1026;SDS011;502;48.746;9.214;2024-03-25T05:57:13;4.10;;;3.17;;
1026;SDS011;502;48.746;9.214;2024-03-25T05:59:38;5.40;;;4.07;;
1026;SDS011;502;48.746;9.214;2024-03-25T06:02:04;6.40;;;3.93;;
1026;SDS011;502;48.746;9.214;2024-03-25T06:04:30;5.57;;;3.70;;
1026;SDS011;502;48.746;9.214;2024-03-25T06:06:55;5.10;;;3.30;;
1026;SDS011;502;48.746;9.214;2024-03-25T06:09:22;6.10;;;3.73;;
1026;SDS011;502;48.746;9.214;2024-03-25T06:11:48;5.53;;;3.40;;
1026;SDS011;502;48.746;9.214;2024-03-25T06:14:14;5.43;;;3.87;;
1026;SDS011;502;48.746;9.214;2024-03-25T06:16:39;4.03;;;3.13;;
1026;SDS011;502;48.746;9.214;2024-03-25T06:19:05;5.57;;;3.73;;
1026;SDS011;502;48.746;9.214;2024-03-25T06:21:30;8.00;;;4.00;;
1026;SDS011;502;48.746;9.214;2024-03-25T06:23:56;4.87;;;3.80;;
1026;SDS011;502;48.746;9.214;2024-03-25T06:26:23;6.17;;;4.30;;
1026;SDS011;502;48.746;9.214;2024-03-25T06:28:49;4.90;;;3.97;;
1026;SDS011;502;48.746;9.214;2024-03-25T06:31:14;6.00;;;4.40;;
1026;SDS011;502;48.746;9.214;2024-03-25T06:33:58;6.00;;;4.57;;
1026;SDS011;502;48.746;9.214;2024-03-25T06:36:39;5.33;;;3.80;;
1026;SDS011;502;48.746;9.214;2024-03-25T06:39:05;5.23;;;3.23;;
1026;SDS011;502;48.746;9.214;2024-03-25T06:41:32;5.17;;;4.17;;
1026;SDS011;502;48.746;9.214;2024-03-25T06:43:57;6.40;;;3.97;;
1026;SDS011;502;48.746;9.214;2024-03-25T06:46:23;8.17;;;4.20;;
1026;SDS011;502;48.746;9.214;2024-03-25T06:48:49;8.50;;;3.83;;
1026;SDS011;502;48.746;9.214;2024-03-25T06:51:14;5.80;;;4.33;;
1026;SDS011;502;48.746;9.214;2024-03-25T06:53:40;6.77;;;5.07;;
1026;SDS011;502;48.746;9.214;2024-03-25T06:56:05;5.77;;;4.33;;
1026;SDS011;502;48.746;9.214;2024-03-25T06:58:32;6.23;;;4.00;;
1026;SDS011;502;48.746;9.214;2024-03-25T07:01:04;7.60;;;4.20;;
1026;SDS011;502;48.746;9.214;2024-03-25T07:03:31;5.63;;;3.80;;
1026;SDS011;502;48.746;9.214;2024-03-25T07:05:57;4.77;;;3.83;;
1026;SDS011;502;48.746;9.214;2024-03-25T07:08:22;5.40;;;3.27;;
1026;SDS011;502;48.746;9.214;2024-03-25T07:10:48;5.13;;;3.90;;
1026;SDS011;502;48.746;9.214;2024-03-25T07:13:14;6.43;;;3.90;;
1026;SDS011;502;48.746;9.214;2024-03-25T07:15:42;9.40;;;3.53;;
1026;SDS011;502;48.746;9.214;2024-03-25T07:18:08;6.30;;;3.57;;
1026;SDS011;502;48.746;9.214;2024-03-25T07:20:34;6.33;;;4.40;;
1026;SDS011;502;48.746;9.214;2024-03-25T07:22:59;6.83;;;4.10;;
1026;SDS011;502;48.746;9.214;2024-03-25T07:25:25;7.80;;;5.80;;
1026;SDS011;502;48.746;9.214;2024-03-25T07:27:51;3.70;;;3.33;;
1026;SDS011;502;48.746;9.214;2024-03-25T07:30:17;4.83;;;3.50;;
1026;SDS011;502;48.746;9.214;2024-03-25T07:32:45;4.40;;;3.50;;
1026;SDS011;502;48.746;9.214;2024-03-25T07:35:10;7.10;;;4.37;;
1026;SDS011;502;48.746;9.214;2024-03-25T07:37:36;4.60;;;3.97;;
1026;SDS011;502;48.746;9.214;2024-03-25T07:40:02;6.87;;;4.50;;
1026;SDS011;502;48.746;9.214;2024-03-25T07:42:28;7.10;;;3.70;;
1026;SDS011;502;48.746;9.214;2024-03-25T07:44:54;7.87;;;4.20;;
1026;SDS011;502;48.746;9.214;2024-03-25T07:47:20;8.03;;;3.57;;
1026;SDS011;502;48.746;9.214;2024-03-25T07:49:48;9.37;;;4.93;;
1026;SDS011;502;48.746;9.214;2024-03-25T07:52:14;7.17;;;3.70;;
1026;SDS011;502;48.746;9.214;2024-03-25T07:54:40;4.37;;;2.90;;
1026;SDS011;502;48.746;9.214;2024-03-25T07:57:05;7.37;;;3.80;;
1026;SDS011;502;48.746;9.214;2024-03-25T07:59:31;4.40;;;3.13;;
1026;SDS011;502;48.746;9.214;2024-03-25T08:01:57;5.43;;;3.50;;
1026;SDS011;502;48.746;9.214;2024-03-25T08:04:23;5.40;;;3.60;;
1026;SDS011;502;48.746;9.214;2024-03-25T08:06:50;4.53;;;2.90;;
1026;SDS011;502;48.746;9.214;2024-03-25T08:09:16;7.53;;;3.90;;
1026;SDS011;502;48.746;9.214;2024-03-25T08:11:42;4.57;;;3.27;;
1026;SDS011;502;48.746;9.214;2024-03-25T08:14:08;4.10;;;3.10;;
1026;SDS011;502;48.746;9.214;2024-03-25T08:16:35;4.70;;;3.50;;
1026;SDS011;502;48.746;9.214;2024-03-25T08:19:01;5.43;;;3.20;;
1026;SDS011;502;48.746;9.214;2024-03-25T08:21:27;5.17;;;3.10;;
1026;SDS011;502;48.746;9.214;2024-03-25T08:23:54;4.30;;;3.17;;
1026;SDS011;502;48.746;9.214;2024-03-25T08:26:20;4.73;;;2.60;;
1026;SDS011;502;48.746;9.214;2024-03-25T08:28:46;3.20;;;2.70;;
1026;SDS011;502;48.746;9.214;2024-03-25T08:31:11;4.10;;;2.67;;
1026;SDS011;502;48.746;9.214;2024-03-25T08:33:37;4.33;;;2.40;;
1026;SDS011;502;48.746;9.214;2024-03-25T08:36:03;2.27;;;1.67;;
1026;SDS011;502;48.746;9.214;2024-03-25T08:38:29;5.63;;;2.57;;
1026;SDS011;502;48.746;9.214;2024-03-25T08:40:56;3.30;;;2.47;;
1026;SDS011;502;48.746;9.214;2024-03-25T08:43:22;2.73;;;2.20;;
1026;SDS011;502;48.746;9.214;2024-03-25T08:45:48;3.50;;;2.23;;
1026;SDS011;502;48.746;9.214;2024-03-25T08:48:13;3.20;;;2.63;;
1026;SDS011;502;48.746;9.214;2024-03-25T08:50:39;3.10;;;2.20;;
1026;SDS011;502;48.746;9.214;2024-03-25T08:53:05;2.73;;;2.27;;
1026;SDS011;502;48.746;9.214;2024-03-25T08:55:31;3.10;;;2.10;;
1026;SDS011;502;48.746;9.214;2024-03-25T08:57:58;2.83;;;1.70;;
1026;SDS011;502;48.746;9.214;2024-03-25T09:00:23;2.00;;;1.70;;
1026;SDS011;502;48.746;9.214;2024-03-25T09:02:49;4.13;;;1.93;;
1026;SDS011;502;48.746;9.214;2024-03-25T09:05:15;5.50;;;2.50;;
1026;SDS011;502;48.746;9.214;2024-03-25T09:07:41;2.60;;;2.00;;
1026;SDS011;502;48.746;9.214;2024-03-25T09:10:06;2.63;;;1.43;;
1026;SDS011;502;48.746;9.214;2024-03-25T09:12:51;3.07;;;1.60;;
1026;SDS011;502;48.746;9.214;2024-03-25T09:15:18;3.37;;;1.70;;
1026;SDS011;502;48.746;9.214;2024-03-25T09:17:43;5.50;;;2.10;;
1026;SDS011;502;48.746;9.214;2024-03-25T09:20:09;2.20;;;1.47;;
1026;SDS011;502;48.746;9.214;2024-03-25T09:22:35;2.80;;;1.70;;
1026;SDS011;502;48.746;9.214;2024-03-25T09:25:01;2.40;;;1.90;;
1026;SDS011;502;48.746;9.214;2024-03-25T09:27:27;2.00;;;1.43;;
1026;SDS011;502;48.746;9.214;2024-03-25T09:29:52;2.27;;;1.60;;
1026;SDS011;502;48.746;9.214;2024-03-25T09:32:19;3.27;;;1.80;;
1026;SDS011;502;48.746;9.214;2024-03-25T09:34:45;2.47;;;1.47;;
1026;SDS011;502;48.746;9.214;2024-03-25T09:37:11;3.50;;;1.70;;
1026;SDS011;502;48.746;9.214;2024-03-25T09:39:37;2.30;;;1.50;;
1026;SDS011;502;48.746;9.214;2024-03-25T09:42:03;1.90;;;1.33;;
1026;SDS011;502;48.746;9.214;2024-03-25T09:44:39;1.40;;;1.30;;
1026;SDS011;502;48.746;9.214;2024-03-25T09:47:04;2.37;;;1.83;;
1026;SDS011;502;48.746;9.214;2024-03-25T09:49:31;2.60;;;2.00;;
1026;SDS011;502;48.746;9.214;2024-03-25T09:52:00;2.87;;;1.97;;
1026;SDS011;502;48.746;9.214;2024-03-25T09:54:25;2.63;;;2.27;;
1026;SDS011;502;48.746;9.214;2024-03-25T09:56:51;3.57;;;2.03;;
1026;SDS011;502;48.746;9.214;2024-03-25T09:59:17;2.97;;;1.60;;
1026;SDS011;502;48.746;9.214;2024-03-25T10:01:43;3.43;;;2.00;;
1026;SDS011;502;48.746;9.214;2024-03-25T10:04:09;2.90;;;2.20;;
1026;SDS011;502;48.746;9.214;2024-03-25T10:06:36;2.40;;;2.17;;
1026;SDS011;502;48.746;9.214;2024-03-25T10:09:04;2.97;;;1.80;;
1026;SDS011;502;48.746;9.214;2024-03-25T10:11:30;2.47;;;2.00;;
1026;SDS011;502;48.746;9.214;2024-03-25T10:13:55;3.00;;;2.07;;
1026;SDS011;502;48.746;9.214;2024-03-25T10:16:22;5.00;;;2.00;;
1026;SDS011;502;48.746;9.214;2024-03-25T10:18:47;2.40;;;1.80;;
1026;SDS011;502;48.746;9.214;2024-03-25T10:21:13;3.23;;;2.10;;
1026;SDS011;502;48.746;9.214;2024-03-25T10:23:41;2.67;;;2.10;;
1026;SDS011;502;48.746;9.214;2024-03-25T10:26:06;3.50;;;2.40;;
1026;SDS011;502;48.746;9.214;2024-03-25T10:28:32;2.50;;;2.03;;
1026;SDS011;502;48.746;9.214;2024-03-25T10:31:02;4.03;;;2.40;;
1026;SDS011;502;48.746;9.214;2024-03-25T10:33:29;4.43;;;2.23;;
1026;SDS011;502;48.746;9.214;2024-03-25T10:35:54;2.50;;;1.80;;
1026;SDS011;502;48.746;9.214;2024-03-25T10:38:22;4.10;;;2.70;;
1026;SDS011;502;48.746;9.214;2024-03-25T10:40:51;3.10;;;1.90;;
1026;SDS011;502;48.746;9.214;2024-03-25T10:43:23;4.50;;;2.10;;
1026;SDS011;502;48.746;9.214;2024-03-25T10:45:53;2.47;;;2.00;;
1026;SDS011;502;48.746;9.214;2024-03-25T10:48:21;2.73;;;2.30;;
1026;SDS011;502;48.746;9.214;2024-03-25T10:50:51;3.90;;;2.17;;
1026;SDS011;502;48.746;9.214;2024-03-25T10:53:18;5.50;;;3.13;;
1026;SDS011;502;48.746;9.214;2024-03-25T10:55:44;3.13;;;2.20;;
1026;SDS011;502;48.746;9.214;2024-03-25T10:58:13;4.67;;;2.10;;
1026;SDS011;502;48.746;9.214;2024-03-25T11:00:41;3.00;;;2.50;;
1026;SDS011;502;48.746;9.214;2024-03-25T11:03:07;4.43;;;2.10;;
1026;SDS011;502;48.746;9.214;2024-03-25T11:05:34;5.23;;;2.50;;
1026;SDS011;502;48.746;9.214;2024-03-25T11:08:08;3.13;;;2.20;;
1026;SDS011;502;48.746;9.214;2024-03-25T11:10:39;6.07;;;2.30;;
1026;SDS011;502;48.746;9.214;2024-03-25T11:13:09;2.80;;;2.30;;
1026;SDS011;502;48.746;9.214;2024-03-25T11:15:37;2.73;;;2.27;;
1026;SDS011;502;48.746;9.214;2024-03-25T11:18:03;4.53;;;2.50;;
1026;SDS011;502;48.746;9.214;2024-03-25T11:20:29;3.47;;;2.40;;
1026;SDS011;502;48.746;9.214;2024-03-25T11:22:55;2.60;;;2.10;;
1026;SDS011;502;48.746;9.214;2024-03-25T11:25:20;5.77;;;2.27;;
1026;SDS011;502;48.746;9.214;2024-03-25T11:27:46;3.40;;;2.33;;
1026;SDS011;502;48.746;9.214;2024-03-25T11:30:13;2.40;;;2.00;;
1026;SDS011;502;48.746;9.214;2024-03-25T11:32:49;3.50;;;2.20;;
1026;SDS011;502;48.746;9.214;2024-03-25T11:35:17;3.67;;;2.40;;
1026;SDS011;502;48.746;9.214;2024-03-25T11:37:42;2.70;;;2.30;;
1026;SDS011;502;48.746;9.214;2024-03-25T11:40:09;3.10;;;2.20;;
1026;SDS011;502;48.746;9.214;2024-03-25T11:42:35;4.30;;;2.53;;
1026;SDS011;502;48.746;9.214;2024-03-25T11:45:01;3.90;;;2.50;;
1026;SDS011;502;48.746;9.214;2024-03-25T11:47:27;2.90;;;2.40;;
1026;SDS011;502;48.746;9.214;2024-03-25T11:49:54;3.20;;;2.70;;
1026;SDS011;502;48.746;9.214;2024-03-25T11:52:20;5.33;;;2.83;;
1026;SDS011;502;48.746;9.214;2024-03-25T11:54:53;5.77;;;3.20;;
1026;SDS011;502;48.746;9.214;2024-03-25T11:57:19;4.13;;;3.40;;
1026;SDS011;502;48.746;9.214;2024-03-25T11:59:45;3.10;;;2.60;;
1026;SDS011;502;48.746;9.214;2024-03-25T12:02:12;3.00;;;2.33;;
1026;SDS011;502;48.746;9.214;2024-03-25T12:04:37;3.30;;;2.83;;
1026;SDS011;502;48.746;9.214;2024-03-25T12:07:04;2.83;;;2.33;;
1026;SDS011;502;48.746;9.214;2024-03-25T12:09:30;4.33;;;3.00;;
1026;SDS011;502;48.746;9.214;2024-03-25T12:12:14;4.03;;;3.27;;
1026;SDS011;502;48.746;9.214;2024-03-25T12:14:40;2.70;;;2.10;;
1026;SDS011;502;48.746;9.214;2024-03-25T12:17:06;2.63;;;2.40;;
1026;SDS011;502;48.746;9.214;2024-03-25T12:19:32;2.97;;;2.40;;
1026;SDS011;502;48.746;9.214;2024-03-25T12:22:01;3.43;;;2.10;;
1026;SDS011;502;48.746;9.214;2024-03-25T12:24:28;3.10;;;2.80;;
1026;SDS011;502;48.746;9.214;2024-03-25T12:26:54;4.10;;;2.43;;
1026;SDS011;502;48.746;9.214;2024-03-25T12:29:20;2.87;;;2.13;;
1026;SDS011;502;48.746;9.214;2024-03-25T12:31:53;5.53;;;2.67;;
1026;SDS011;502;48.746;9.214;2024-03-25T12:34:21;3.17;;;2.20;;
1026;SDS011;502;48.746;9.214;2024-03-25T12:36:47;3.63;;;2.60;;
1026;SDS011;502;48.746;9.214;2024-03-25T12:39:16;3.60;;;2.50;;
1026;SDS011;502;48.746;9.214;2024-03-25T12:41:43;3.93;;;2.10;;
1026;SDS011;502;48.746;9.214;2024-03-25T12:44:11;4.13;;;2.70;;
1026;SDS011;502;48.746;9.214;2024-03-25T12:46:37;3.47;;;2.20;;
1026;SDS011;502;48.746;9.214;2024-03-25T12:49:03;3.07;;;2.20;;
1026;SDS011;502;48.746;9.214;2024-03-25T12:51:29;2.57;;;1.73;;
1026;SDS011;502;48.746;9.214;2024-03-25T12:53:54;3.90;;;2.43;;
1026;SDS011;502;48.746;9.214;2024-03-25T12:56:20;3.77;;;2.80;;
1026;SDS011;502;48.746;9.214;2024-03-25T12:58:47;5.90;;;2.33;;
1026;SDS011;502;48.746;9.214;2024-03-25T13:01:12;2.50;;;2.17;;
1026;SDS011;502;48.746;9.214;2024-03-25T13:03:38;6.17;;;2.27;;
1026;SDS011;502;48.746;9.214;2024-03-25T13:06:04;4.67;;;2.87;;
1026;SDS011;502;48.746;9.214;2024-03-25T13:08:30;5.07;;;2.83;;
1026;SDS011;502;48.746;9.214;2024-03-25T13:10:55;2.37;;;2.13;;
1026;SDS011;502;48.746;9.214;2024-03-25T13:13:21;2.67;;;2.03;;
1026;SDS011;502;48.746;9.214;2024-03-25T13:15:48;4.13;;;2.50;;
1026;SDS011;502;48.746;9.214;2024-03-25T13:18:14;3.00;;;2.50;;
1026;SDS011;502;48.746;9.214;2024-03-25T13:20:39;2.67;;;1.93;;
1026;SDS011;502;48.746;9.214;2024-03-25T13:23:05;5.20;;;2.70;;
1026;SDS011;502;48.746;9.214;2024-03-25T13:25:31;4.03;;;2.23;;
1026;SDS011;502;48.746;9.214;2024-03-25T13:27:56;3.67;;;2.70;;
1026;SDS011;502;48.746;9.214;2024-03-25T13:30:22;2.90;;;2.37;;
1026;SDS011;502;48.746;9.214;2024-03-25T13:32:49;3.47;;;2.43;;
1026;SDS011;502;48.746;9.214;2024-03-25T13:35:15;2.77;;;2.30;;
1026;SDS011;502;48.746;9.214;2024-03-25T13:37:40;2.60;;;2.23;;
1026;SDS011;502;48.746;9.214;2024-03-25T13:40:07;2.90;;;2.37;;
1026;SDS011;502;48.746;9.214;2024-03-25T13:42:33;2.90;;;2.27;;
1026;SDS011;502;48.746;9.214;2024-03-25T13:44:59;2.60;;;1.53;;
1026;SDS011;502;48.746;9.214;2024-03-25T13:47:25;2.77;;;2.30;;
1026;SDS011;502;48.746;9.214;2024-03-25T13:50:00;3.20;;;2.50;;
1026;SDS011;502;48.746;9.214;2024-03-25T13:52:26;2.70;;;2.33;;
1026;SDS011;502;48.746;9.214;2024-03-25T13:54:52;2.23;;;2.00;;
1026;SDS011;502;48.746;9.214;2024-03-25T13:57:18;3.37;;;2.40;;
1026;SDS011;502;48.746;9.214;2024-03-25T13:59:43;3.27;;;2.30;;
1026;SDS011;502;48.746;9.214;2024-03-25T14:02:09;2.67;;;2.17;;
1026;SDS011;502;48.746;9.214;2024-03-25T14:04:35;3.20;;;2.43;;
1026;SDS011;502;48.746;9.214;2024-03-25T14:07:02;3.90;;;2.20;;
1026;SDS011;502;48.746;9.214;2024-03-25T14:09:27;3.20;;;2.33;;
1026;SDS011;502;48.746;9.214;2024-03-25T14:11:53;2.80;;;2.37;;
1026;SDS011;502;48.746;9.214;2024-03-25T14:14:19;2.87;;;2.20;;
1026;SDS011;502;48.746;9.214;2024-03-25T14:16:45;2.13;;;1.83;;
1026;SDS011;502;48.746;9.214;2024-03-25T14:19:10;5.00;;;2.60;;
1026;SDS011;502;48.746;9.214;2024-03-25T14:21:36;2.93;;;2.40;;
1026;SDS011;502;48.746;9.214;2024-03-25T14:24:04;3.67;;;2.40;;
1026;SDS011;502;48.746;9.214;2024-03-25T14:26:30;2.37;;;1.80;;
1026;SDS011;502;48.746;9.214;2024-03-25T14:28:55;3.37;;;2.07;;
1026;SDS011;502;48.746;9.214;2024-03-25T14:31:21;4.27;;;2.10;;
1026;SDS011;502;48.746;9.214;2024-03-25T14:33:46;5.13;;;2.40;;
1026;SDS011;502;48.746;9.214;2024-03-25T14:36:12;3.10;;;2.20;;
1026;SDS011;502;48.746;9.214;2024-03-25T14:38:38;2.13;;;1.73;;
1026;SDS011;502;48.746;9.214;2024-03-25T14:41:05;2.30;;;1.67;;
1026;SDS011;502;48.746;9.214;2024-03-25T14:43:31;3.33;;;2.10;;
1026;SDS011;502;48.746;9.214;2024-03-25T14:45:57;2.10;;;1.83;;
1026;SDS011;502;48.746;9.214;2024-03-25T14:48:22;2.70;;;1.93;;
1026;SDS011;502;48.746;9.214;2024-03-25T14:50:48;3.97;;;2.07;;
1026;SDS011;502;48.746;9.214;2024-03-25T14:53:14;2.77;;;2.10;;
1026;SDS011;502;48.746;9.214;2024-03-25T14:55:41;2.93;;;2.60;;
1026;SDS011;502;48.746;9.214;2024-03-25T14:58:08;3.20;;;2.27;;
1026;SDS011;502;48.746;9.214;2024-03-25T15:00:33;2.70;;;2.03;;
1026;SDS011;502;48.746;9.214;2024-03-25T15:02:59;4.17;;;1.93;;
1026;SDS011;502;48.746;9.214;2024-03-25T15:05:25;4.33;;;2.20;;
1026;SDS011;502;48.746;9.214;2024-03-25T15:07:50;2.83;;;1.80;;
1026;SDS011;502;48.746;9.214;2024-03-25T15:10:16;3.30;;;2.27;;
1026;SDS011;502;48.746;9.214;2024-03-25T15:12:42;2.40;;;2.00;;
1026;SDS011;502;48.746;9.214;2024-03-25T15:15:09;2.70;;;1.90;;
1026;SDS011;502;48.746;9.214;2024-03-25T15:17:35;2.70;;;2.40;;
1026;SDS011;502;48.746;9.214;2024-03-25T15:20:02;2.90;;;1.90;;
1026;SDS011;502;48.746;9.214;2024-03-25T15:22:28;3.10;;;2.47;;
1026;SDS011;502;48.746;9.214;2024-03-25T15:24:54;2.37;;;1.93;;